Time;durP1;ratioP1;P1;durP2;ratioP2;P2;SDS_P1;SDS_P2;PMS_P1;PMS_P2;Temp;Humidity;BMP_temperature;BMP_pressure;BME280_temperature;BME280_humidity;BME280_pressure;Samples;Min_cycle;Max_cycle;Signal;HPM_P1;HPM_P2
2022/10/21 00:01:19;;;;;;;62.90;5.60;;;;;;;;;;5112723;28;20823;-71
2022/10/21 00:03:46;;;;;;;60.43;4.90;;;;;;;;;;5113071;28;20454;-71
2022/10/21 00:06:13;;;;;;;62.87;5.83;;;;;;;;;;5112748;28;20886;-71
2022/10/21 00:08:40;;;;;;;64.10;4.90;;;;;;;;;;5112369;28;20483;-71
2022/10/21 00:11:09;;;;;;;62.90;6.40;;;;;;;;;;5112650;28;20448;-71
2022/10/21 00:13:37;;;;;;;59.87;4.90;;;;;;;;;;5112965;28;20452;-71
2022/10/21 00:16:06;;;;;;;63.10;6.03;;;;;;;;;;5112311;28;21034;-71
2022/10/21 00:18:35;;;;;;;64.00;6.53;;;;;;;;;;5112671;28;20831;-71
2022/10/21 00:21:05;;;;;;;60.90;4.33;;;;;;;;;;5112567;28;20826;-70
2022/10/21 00:23:32;;;;;;;62.90;5.87;;;;;;;;;;5112477;28;20474;-70
2022/10/21 00:26:00;;;;;;;62.57;7.20;;;;;;;;;;5112542;28;20551;-70
2022/10/21 00:28:27;;;;;;;62.20;5.77;;;;;;;;;;5112296;28;20487;-70
2022/10/21 00:30:54;;;;;;;62.70;5.90;;;;;;;;;;5111994;28;20957;-70
2022/10/21 00:33:22;;;;;;;62.07;6.40;;;;;;;;;;5112351;28;20448;-70
2022/10/21 00:35:54;;;;;;;63.00;5.87;;;;;;;;;;5112220;28;20479;-69
2022/10/21 00:38:21;;;;;;;61.20;6.47;;;;;;;;;;5112202;28;20455;-70
2022/10/21 00:40:48;;;;;;;62.30;5.83;;;;;;;;;;5112046;28;20458;-70
2022/10/21 00:43:16;;;;;;;62.40;4.80;;;;;;;;;;5112109;28;20459;-70
2022/10/21 00:45:44;;;;;;;60.10;4.50;;;;;;;;;;5112339;28;20444;-71
2022/10/21 00:48:15;;;;;;;63.10;5.77;;;;;;;;;;5112091;28;20458;-70
2022/10/21 00:50:45;;;;;;;61.20;6.10;;;;;;;;;;5117226;28;20443;-70
2022/10/21 00:53:14;;;;;;;63.40;6.10;;;;;;;;;;5119065;27;20445;-70
2022/10/21 00:55:48;;;;;;;61.37;6.40;;;;;;;;;;5118812;27;20529;-71
2022/10/21 00:58:16;;;;;;;60.37;5.07;;;;;;;;;;5119035;27;20460;-70
2022/10/21 01:00:43;;;;;;;60.80;5.20;;;;;;;;;;5118770;27;20447;-70
2022/10/21 01:03:10;;;;;;;59.87;4.83;;;;;;;;;;5118847;27;20948;-70
2022/10/21 01:05:38;;;;;;;61.50;5.60;;;;;;;;;;5118709;27;20467;-70
2022/10/21 01:08:05;;;;;;;66.37;7.20;;;;;;;;;;5118634;27;20451;-70
2022/10/21 01:10:34;;;;;;;62.80;5.90;;;;;;;;;;5118648;27;20848;-70
2022/10/21 01:13:09;;;;;;;61.43;5.10;;;;;;;;;;5118873;27;20454;-70
2022/10/21 01:15:40;;;;;;;61.70;6.20;;;;;;;;;;5118757;27;20459;-71
2022/10/21 01:18:10;;;;;;;60.43;5.77;;;;;;;;;;5118772;27;20455;-70
2022/10/21 01:20:55;;;;;;;60.70;5.20;;;;;;;;;;5118348;27;20449;-70
2022/10/21 01:23:34;;;;;;;63.33;6.63;;;;;;;;;;5118649;27;20455;-70
2022/10/21 01:26:16;;;;;;;59.83;4.30;;;;;;;;;;5118540;27;20457;-70
2022/10/21 01:28:50;;;;;;;60.67;5.20;;;;;;;;;;5084243;27;20491;-70
2022/10/21 01:31:20;;;;;;;65.27;7.00;;;;;;;;;;5118783;27;20461;-70
2022/10/21 01:33:50;;;;;;;61.20;5.20;;;;;;;;;;5118637;27;20800;-70
2022/10/21 01:36:29;;;;;;;62.50;5.70;;;;;;;;;;5118498;27;20463;-70
2022/10/21 01:39:02;;;;;;;61.80;5.70;;;;;;;;;;5116249;27;20968;-70
2022/10/21 01:41:31;;;;;;;62.17;5.40;;;;;;;;;;5118628;27;20833;-71
2022/10/21 01:44:02;;;;;;;62.30;6.10;;;;;;;;;;5118478;27;20799;-70
2022/10/21 01:46:34;;;;;;;59.67;4.80;;;;;;;;;;5118306;27;20987;-70
2022/10/21 01:49:03;;;;;;;62.97;5.83;;;;;;;;;;5117885;27;20476;-70
2022/10/21 01:51:30;;;;;;;59.80;4.80;;;;;;;;;;5118257;27;20457;-70
2022/10/21 01:54:00;;;;;;;61.70;6.37;;;;;;;;;;5118228;27;20447;-70
2022/10/21 01:56:28;;;;;;;59.70;5.23;;;;;;;;;;5118471;27;20475;-70
2022/10/21 01:58:56;;;;;;;62.47;6.60;;;;;;;;;;5118077;27;20452;-70
2022/10/21 02:01:23;;;;;;;61.40;5.70;;;;;;;;;;5115629;27;20618;-70
2022/10/21 02:03:53;;;;;;;60.27;5.23;;;;;;;;;;5115251;28;20449;-70
2022/10/21 02:06:20;;;;;;;60.37;4.93;;;;;;;;;;5114984;28;20475;-70
2022/10/21 02:08:48;;;;;;;62.00;6.43;;;;;;;;;;5114748;28;20454;-71
2022/10/21 02:11:17;;;;;;;61.63;6.87;;;;;;;;;;5114958;28;20878;-70
2022/10/21 02:13:46;;;;;;;63.80;6.70;;;;;;;;;;5114831;28;20444;-70
2022/10/21 02:16:16;;;;;;;62.23;5.40;;;;;;;;;;5114894;28;20468;-70
2022/10/21 02:18:43;;;;;;;63.80;7.10;;;;;;;;;;5114494;28;20467;-70
2022/10/21 02:21:15;;;;;;;61.53;5.60;;;;;;;;;;5114778;28;20804;-70
2022/10/21 02:23:44;;;;;;;61.77;6.03;;;;;;;;;;5114606;28;20507;-71
2022/10/21 02:26:11;;;;;;;62.50;5.63;;;;;;;;;;5114600;28;20494;-70
2022/10/21 02:28:39;;;;;;;65.90;7.43;;;;;;;;;;5114039;28;20447;-71
2022/10/21 02:31:11;;;;;;;63.73;6.67;;;;;;;;;;5114702;28;20454;-70
2022/10/21 02:33:44;;;;;;;61.87;5.17;;;;;;;;;;5114703;28;20953;-70
2022/10/21 02:36:14;;;;;;;62.37;5.40;;;;;;;;;;5114441;27;20468;-70
2022/10/21 02:38:44;;;;;;;62.50;6.17;;;;;;;;;;5114077;27;20452;-69
2022/10/21 02:41:12;;;;;;;61.77;6.77;;;;;;;;;;5114130;28;20456;-70
2022/10/21 02:43:40;;;;;;;61.37;5.33;;;;;;;;;;5114704;28;20440;-71
2022/10/21 02:46:09;;;;;;;61.63;5.10;;;;;;;;;;5114417;28;20471;-70
2022/10/21 02:48:37;;;;;;;62.70;5.60;;;;;;;;;;5113806;28;20455;-70
2022/10/21 02:51:04;;;;;;;62.10;4.80;;;;;;;;;;5113938;28;20480;-71
2022/10/21 02:53:33;;;;;;;61.40;5.20;;;;;;;;;;5114525;28;20766;-70
2022/10/21 02:56:00;;;;;;;60.77;5.07;;;;;;;;;;5114186;28;20477;-70
2022/10/21 02:58:27;;;;;;;60.40;5.37;;;;;;;;;;5114040;28;20449;-71
2022/10/21 03:00:55;;;;;;;63.50;6.33;;;;;;;;;;5113959;28;20619;-71
2022/10/21 03:03:22;;;;;;;60.53;5.07;;;;;;;;;;5113982;28;20926;-71
2022/10/21 03:05:49;;;;;;;60.50;5.00;;;;;;;;;;5113720;28;20479;-70
2022/10/21 03:08:16;;;;;;;60.80;5.17;;;;;;;;;;5113776;28;20551;-70
2022/10/21 03:10:45;;;;;;;67.53;6.17;;;;;;;;;;5113677;28;20494;-71
2022/10/21 03:13:12;;;;;;;62.27;5.87;;;;;;;;;;5113837;28;20929;-71
2022/10/21 03:15:39;;;;;;;62.20;5.80;;;;;;;;;;5113717;28;20610;-71
2022/10/21 03:18:06;;;;;;;62.17;4.90;;;;;;;;;;5113477;28;20455;-71
2022/10/21 03:20:33;;;;;;;59.30;4.67;;;;;;;;;;5113175;28;20819;-70
2022/10/21 03:23:00;;;;;;;60.10;4.80;;;;;;;;;;5113784;28;20545;-71
2022/10/21 03:25:27;;;;;;;62.50;4.90;;;;;;;;;;5113451;28;20832;-70
2022/10/21 03:27:56;;;;;;;60.70;5.47;;;;;;;;;;5113417;28;20447;-70
2022/10/21 03:30:23;;;;;;;60.77;5.23;;;;;;;;;;5113038;28;21003;-70
2022/10/21 03:32:50;;;;;;;62.37;6.60;;;;;;;;;;5113358;28;20456;-71
2022/10/21 03:35:17;;;;;;;62.73;6.60;;;;;;;;;;5113171;28;20474;-71
2022/10/21 03:37:44;;;;;;;60.70;4.30;;;;;;;;;;5113363;27;20477;-71
2022/10/21 03:40:12;;;;;;;59.73;4.90;;;;;;;;;;5113128;28;20443;-70
2022/10/21 03:42:39;;;;;;;62.30;4.80;;;;;;;;;;5113179;28;20459;-71
2022/10/21 03:45:08;;;;;;;59.70;4.67;;;;;;;;;;5112993;28;20454;-70
2022/10/21 03:47:35;;;;;;;60.20;5.37;;;;;;;;;;5112899;28;20471;-71
2022/10/21 03:50:02;;;;;;;64.70;5.10;;;;;;;;;;5112535;28;21011;-71
2022/10/21 03:52:29;;;;;;;61.87;5.93;;;;;;;;;;5113097;28;20449;-71
2022/10/21 03:54:56;;;;;;;61.27;4.73;;;;;;;;;;5112938;28;20901;-71
2022/10/21 03:57:23;;;;;;;60.87;5.10;;;;;;;;;;5112974;28;20495;-70
2022/10/21 03:59:50;;;;;;;59.93;4.60;;;;;;;;;;5112533;28;20440;-70
2022/10/21 04:02:19;;;;;;;61.50;6.00;;;;;;;;;;5113105;28;20956;-70
2022/10/21 04:04:46;;;;;;;62.70;5.60;;;;;;;;;;5112969;28;20451;-69
2022/10/21 04:07:13;;;;;;;60.30;4.87;;;;;;;;;;5112565;27;20811;-70
2022/10/21 04:09:40;;;;;;;61.37;5.40;;;;;;;;;;5112351;28;20482;-70
2022/10/21 04:12:07;;;;;;;69.90;7.73;;;;;;;;;;5112719;28;20452;-70
2022/10/21 04:14:34;;;;;;;61.47;4.87;;;;;;;;;;5112590;28;20448;-70
2022/10/21 04:17:01;;;;;;;63.63;5.70;;;;;;;;;;5112451;28;20466;-70
2022/10/21 04:19:30;;;;;;;61.07;5.30;;;;;;;;;;5112063;28;20459;-70
2022/10/21 04:21:57;;;;;;;60.80;5.33;;;;;;;;;;5112573;28;20468;-71
2022/10/21 04:24:24;;;;;;;59.73;4.60;;;;;;;;;;5112013;28;20445;-70
2022/10/21 04:26:51;;;;;;;62.80;7.47;;;;;;;;;;5112430;28;20475;-71
2022/10/21 04:29:18;;;;;;;60.97;6.00;;;;;;;;;;5111830;28;20455;-71
2022/10/21 04:31:45;;;;;;;60.37;5.00;;;;;;;;;;5112627;28;20452;-71
2022/10/21 04:34:13;;;;;;;59.77;5.23;;;;;;;;;;5112080;28;20457;-71
2022/10/21 04:36:42;;;;;;;63.30;6.03;;;;;;;;;;5112134;28;20965;-71
2022/10/21 04:39:09;;;;;;;60.40;4.47;;;;;;;;;;5112059;28;20463;-69
2022/10/21 04:41:36;;;;;;;61.10;4.73;;;;;;;;;;5112328;28;20450;-70
2022/10/21 04:44:05;;;;;;;59.80;4.33;;;;;;;;;;5112111;28;20447;-70
2022/10/21 04:46:32;;;;;;;62.60;6.13;;;;;;;;;;5112371;28;20503;-71
2022/10/21 04:48:59;;;;;;;64.80;5.00;;;;;;;;;;5111813;28;20452;-70
2022/10/21 04:51:26;;;;;;;61.77;5.60;;;;;;;;;;5112182;28;20487;-71
2022/10/21 04:53:54;;;;;;;59.40;4.27;;;;;;;;;;5112099;28;20456;-71
2022/10/21 04:56:21;;;;;;;60.13;5.30;;;;;;;;;;5111968;28;20470;-70
2022/10/21 04:58:49;;;;;;;62.70;6.27;;;;;;;;;;5111689;28;20454;-71
2022/10/21 05:01:16;;;;;;;69.13;5.70;;;;;;;;;;5112314;28;20816;-71
2022/10/21 05:03:43;;;;;;;59.80;4.40;;;;;;;;;;5112257;28;20449;-71
2022/10/21 05:06:10;;;;;;;61.30;5.10;;;;;;;;;;5112270;28;20744;-70
2022/10/21 05:08:37;;;;;;;60.00;4.40;;;;;;;;;;5112130;28;20476;-71
2022/10/21 05:11:06;;;;;;;62.50;6.10;;;;;;;;;;5112588;28;20584;-70
2022/10/21 05:13:33;;;;;;;60.17;4.57;;;;;;;;;;5112435;28;20488;-71
2022/10/21 05:16:01;;;;;;;61.77;4.47;;;;;;;;;;5112610;28;20517;-71
2022/10/21 05:18:29;;;;;;;62.67;6.37;;;;;;;;;;5113259;28;20449;-72
2022/10/21 05:20:57;;;;;;;61.47;5.73;;;;;;;;;;5112947;28;20440;-71
2022/10/21 05:23:24;;;;;;;64.30;6.03;;;;;;;;;;5112758;28;20451;-71
2022/10/21 05:25:52;;;;;;;62.27;7.37;;;;;;;;;;5112471;28;20469;-71
2022/10/21 05:28:21;;;;;;;60.97;5.73;;;;;;;;;;5112027;28;20938;-71
2022/10/21 05:30:48;;;;;;;64.40;6.93;;;;;;;;;;5111731;28;21096;-71
2022/10/21 05:33:15;;;;;;;60.40;5.00;;;;;;;;;;5112132;28;20540;-71
2022/10/21 05:35:42;;;;;;;61.50;6.13;;;;;;;;;;5111743;28;20954;-70
2022/10/21 05:38:10;;;;;;;60.50;4.77;;;;;;;;;;5115222;28;20446;-71
2022/10/21 05:40:37;;;;;;;60.20;4.80;;;;;;;;;;5115460;27;20442;-72
2022/10/21 05:43:04;;;;;;;59.87;4.93;;;;;;;;;;5115843;28;20453;-72
2022/10/21 05:45:32;;;;;;;62.53;5.27;;;;;;;;;;5115696;28;20959;-71
2022/10/21 05:47:59;;;;;;;60.27;5.37;;;;;;;;;;5115427;28;20453;-72
2022/10/21 05:50:26;;;;;;;60.47;4.77;;;;;;;;;;5115464;28;20846;-71
2022/10/21 05:52:57;;;;;;;60.57;5.40;;;;;;;;;;5115720;28;20452;-71
2022/10/21 05:55:24;;;;;;;61.67;5.53;;;;;;;;;;5115588;28;20527;-71
2022/10/21 05:57:51;;;;;;;62.50;5.70;;;;;;;;;;5115332;28;20520;-71
2022/10/21 06:00:18;;;;;;;61.37;5.97;;;;;;;;;;5114916;28;20449;-72
2022/10/21 06:02:46;;;;;;;60.80;5.00;;;;;;;;;;5115202;28;20472;-71
2022/10/21 06:05:13;;;;;;;61.37;4.13;;;;;;;;;;5114994;28;20444;-72
2022/10/21 06:07:41;;;;;;;63.60;5.37;;;;;;;;;;5115165;28;20850;-72
2022/10/21 06:10:08;;;;;;;60.47;5.43;;;;;;;;;;5114881;28;20445;-72
2022/10/21 06:12:35;;;;;;;59.27;3.87;;;;;;;;;;5115024;28;20455;-72
2022/10/21 06:15:03;;;;;;;59.60;3.90;;;;;;;;;;5114926;28;20815;-72
2022/10/21 06:17:30;;;;;;;60.17;4.53;;;;;;;;;;5114686;28;20475;-72
2022/10/21 06:19:59;;;;;;;60.67;4.57;;;;;;;;;;5114423;28;20457;-72
2022/10/21 06:22:26;;;;;;;62.50;6.03;;;;;;;;;;5114617;28;20968;-72
2022/10/21 06:24:53;;;;;;;62.93;5.00;;;;;;;;;;5114680;27;20442;-71
2022/10/21 06:27:20;;;;;;;60.30;4.83;;;;;;;;;;5114677;28;20488;-72
2022/10/21 06:29:47;;;;;;;63.87;5.30;;;;;;;;;;5114383;28;20457;-72
2022/10/21 06:32:14;;;;;;;59.80;4.87;;;;;;;;;;5114436;28;20477;-72
2022/10/21 06:34:41;;;;;;;66.23;5.87;;;;;;;;;;5114531;28;20469;-72
2022/10/21 06:37:10;;;;;;;60.17;4.20;;;;;;;;;;5113452;28;20464;-72
2022/10/21 06:39:37;;;;;;;62.03;5.20;;;;;;;;;;5114275;28;20449;-72
2022/10/21 06:42:04;;;;;;;63.97;5.37;;;;;;;;;;5114501;28;20461;-72
2022/10/21 06:44:31;;;;;;;61.37;4.93;;;;;;;;;;5114211;28;20969;-70
2022/10/21 06:46:58;;;;;;;58.70;3.60;;;;;;;;;;5113624;28;20468;-72
2022/10/21 06:49:25;;;;;;;62.70;5.57;;;;;;;;;;5113828;28;20442;-70
2022/10/21 06:51:53;;;;;;;60.27;4.63;;;;;;;;;;5113997;28;20485;-72
2022/10/21 06:54:21;;;;;;;59.83;4.80;;;;;;;;;;5114263;28;20844;-72
2022/10/21 06:56:48;;;;;;;59.77;6.63;;;;;;;;;;5113854;28;20466;-72
2022/10/21 06:59:15;;;;;;;60.77;4.60;;;;;;;;;;5113592;28;20438;-72
2022/10/21 07:01:43;;;;;;;62.20;3.73;;;;;;;;;;5114311;27;20449;-72
2022/10/21 07:04:11;;;;;;;60.60;4.67;;;;;;;;;;5114125;28;20452;-72
2022/10/21 07:06:38;;;;;;;59.70;4.43;;;;;;;;;;5113936;28;20985;-72
2022/10/21 07:09:05;;;;;;;61.23;4.67;;;;;;;;;;5113692;28;20438;-72
2022/10/21 07:11:34;;;;;;;64.33;5.00;;;;;;;;;;5113919;28;20488;-72
2022/10/21 07:14:01;;;;;;;60.30;4.03;;;;;;;;;;5113659;28;20934;-72
2022/10/21 07:16:29;;;;;;;59.07;4.20;;;;;;;;;;5113796;28;20472;-72
2022/10/21 07:18:57;;;;;;;59.43;3.30;;;;;;;;;;5113501;28;20453;-72
2022/10/21 07:21:27;;;;;;;61.77;4.50;;;;;;;;;;5113550;27;20450;-72
2022/10/21 07:23:55;;;;;;;62.20;4.27;;;;;;;;;;5113492;28;20449;-72
2022/10/21 07:26:23;;;;;;;59.73;4.90;;;;;;;;;;5113319;28;20821;-70
2022/10/21 07:28:51;;;;;;;61.73;3.87;;;;;;;;;;5113168;28;20950;-70
2022/10/21 07:31:20;;;;;;;58.70;4.13;;;;;;;;;;5113500;28;20485;-70
2022/10/21 07:33:47;;;;;;;58.90;3.90;;;;;;;;;;5113365;28;20450;-70
2022/10/21 07:36:15;;;;;;;59.73;4.27;;;;;;;;;;5113373;28;20592;-72
2022/10/21 07:38:45;;;;;;;58.87;3.90;;;;;;;;;;5113088;28;20444;-74
2022/10/21 07:41:14;;;;;;;59.97;3.47;;;;;;;;;;5113167;27;20437;-70
2022/10/21 07:43:41;;;;;;;59.47;4.00;;;;;;;;;;5113542;28;20446;-69
2022/10/21 07:46:09;;;;;;;60.27;4.20;;;;;;;;;;5113282;28;20465;-69
2022/10/21 07:48:36;;;;;;;59.60;4.10;;;;;;;;;;5112819;28;20457;-71
2022/10/21 07:51:04;;;;;;;59.90;4.27;;;;;;;;;;5111070;28;20853;-68
2022/10/21 07:53:31;;;;;;;59.30;4.47;;;;;;;;;;5112682;28;20446;-69
2022/10/21 07:56:02;;;;;;;61.93;3.90;;;;;;;;;;5112624;28;20473;-68
2022/10/21 07:58:30;;;;;;;58.40;3.90;;;;;;;;;;5111991;28;20449;-69
2022/10/21 08:00:58;;;;;;;59.60;4.50;;;;;;;;;;5111640;28;20449;-69
2022/10/21 08:03:26;;;;;;;65.87;4.90;;;;;;;;;;5112376;28;20445;-69
2022/10/21 08:05:54;;;;;;;58.50;3.60;;;;;;;;;;5112266;28;20477;-67
2022/10/21 08:08:21;;;;;;;62.10;6.37;;;;;;;;;;5112734;28;20469;-69
2022/10/21 08:10:48;;;;;;;65.53;5.30;;;;;;;;;;5112503;28;20512;-68
2022/10/21 08:13:15;;;;;;;59.30;4.17;;;;;;;;;;5112595;28;20449;-68
2022/10/21 08:15:43;;;;;;;60.30;4.70;;;;;;;;;;5112766;28;20562;-68
2022/10/21 08:18:10;;;;;;;59.80;4.27;;;;;;;;;;5112395;28;20449;-68
2022/10/21 08:20:40;;;;;;;59.80;5.37;;;;;;;;;;5112119;28;20442;-68
2022/10/21 08:23:08;;;;;;;60.27;4.97;;;;;;;;;;5112693;28;20445;-69
2022/10/21 08:25:35;;;;;;;58.80;3.70;;;;;;;;;;5110621;28;20450;-70
2022/10/21 08:28:02;;;;;;;69.87;4.03;;;;;;;;;;5111664;28;20445;-69
2022/10/21 08:30:30;;;;;;;60.97;6.43;;;;;;;;;;5112276;28;20496;-68
2022/10/21 08:32:58;;;;;;;60.27;4.97;;;;;;;;;;5112036;28;20481;-68
2022/10/21 08:35:25;;;;;;;61.30;4.90;;;;;;;;;;5112186;28;20464;-68
2022/10/21 08:37:54;;;;;;;63.17;4.90;;;;;;;;;;5112214;28;20472;-70
2022/10/21 08:40:21;;;;;;;61.00;4.30;;;;;;;;;;5110253;28;20947;-71
2022/10/21 08:42:49;;;;;;;58.90;4.03;;;;;;;;;;5112172;28;20453;-71
2022/10/21 08:45:20;;;;;;;59.40;4.90;;;;;;;;;;5112224;28;20441;-71
2022/10/21 08:47:49;;;;;;;59.40;4.07;;;;;;;;;;5112049;28;20935;-71
2022/10/21 08:50:19;;;;;;;60.70;4.30;;;;;;;;;;5111826;28;20448;-71
2022/10/21 08:52:47;;;;;;;59.63;4.50;;;;;;;;;;5111782;28;21039;-70
2022/10/21 08:55:17;;;;;;;59.07;3.93;;;;;;;;;;5111965;28;20459;-71
2022/10/21 08:57:44;;;;;;;62.90;4.47;;;;;;;;;;5112172;28;20999;-71
2022/10/21 09:00:14;;;;;;;59.67;4.20;;;;;;;;;;5111518;28;20821;-70
2022/10/21 09:02:47;;;;;;;61.30;3.70;;;;;;;;;;5112098;28;20490;-70
2022/10/21 09:05:22;;;;;;;61.87;4.90;;;;;;;;;;5112232;28;20841;-71
2022/10/21 09:07:56;;;;;;;58.70;4.20;;;;;;;;;;5112098;28;20476;-71
2022/10/21 09:10:31;;;;;;;60.10;3.60;;;;;;;;;;5112017;28;20519;-71
2022/10/21 09:13:03;;;;;;;59.70;4.03;;;;;;;;;;5113931;27;20488;-70
2022/10/21 09:15:33;;;;;;;59.40;3.60;;;;;;;;;;5116272;28;20514;-70
2022/10/21 09:18:12;;;;;;;59.07;3.40;;;;;;;;;;5115996;28;20452;-70
2022/10/21 09:20:46;;;;;;;65.40;5.93;;;;;;;;;;5115878;28;20902;-71
2022/10/21 09:23:25;;;;;;;60.47;3.83;;;;;;;;;;5115889;28;20446;-71
2022/10/21 09:25:55;;;;;;;67.93;5.60;;;;;;;;;;5116055;28;20471;-70
2022/10/21 09:28:24;;;;;;;62.23;5.13;;;;;;;;;;5115866;28;20450;-70
2022/10/21 09:30:52;;;;;;;59.10;4.03;;;;;;;;;;5115610;28;20467;-70
2022/10/21 09:33:22;;;;;;;58.37;3.47;;;;;;;;;;5115591;28;20441;-72
2022/10/21 09:35:51;;;;;;;59.80;4.70;;;;;;;;;;5115661;28;20472;-71
2022/10/21 09:38:21;;;;;;;59.30;4.43;;;;;;;;;;5115596;28;20461;-71
2022/10/21 09:40:50;;;;;;;59.93;4.50;;;;;;;;;;5115678;28;20457;-71
2022/10/21 09:43:21;;;;;;;60.37;4.30;;;;;;;;;;5113523;28;20973;-71
2022/10/21 09:45:49;;;;;;;63.63;4.43;;;;;;;;;;5115619;28;20472;-71
2022/10/21 09:48:23;;;;;;;59.37;4.17;;;;;;;;;;5115384;28;20830;-72
2022/10/21 09:50:52;;;;;;;59.67;4.67;;;;;;;;;;5115220;28;20810;-71
2022/10/21 09:53:22;;;;;;;59.20;3.80;;;;;;;;;;5114973;28;21028;-70
2022/10/21 09:55:50;;;;;;;60.17;4.40;;;;;;;;;;5115220;28;20477;-71
2022/10/21 09:58:26;;;;;;;59.07;3.80;;;;;;;;;;5115284;28;20441;-71
2022/10/21 10:00:54;;;;;;;59.40;4.67;;;;;;;;;;5115148;28;20444;-70
2022/10/21 10:03:31;;;;;;;75.60;6.37;;;;;;;;;;5115253;27;20437;-71
2022/10/21 10:05:58;;;;;;;60.37;4.63;;;;;;;;;;5115256;28;20883;-71
2022/10/21 10:08:30;;;;;;;60.63;4.40;;;;;;;;;;5115472;28;20449;-70
2022/10/21 10:11:05;;;;;;;58.90;4.17;;;;;;;;;;5114499;27;20454;-71
2022/10/21 10:13:34;;;;;;;59.87;4.43;;;;;;;;;;5114847;27;20941;-71
2022/10/21 10:16:15;;;;;;;65.00;7.43;;;;;;;;;;5113012;28;20467;-70
2022/10/21 10:18:42;;;;;;;59.60;4.10;;;;;;;;;;5114468;28;20539;-70
2022/10/21 10:21:11;;;;;;;61.10;3.23;;;;;;;;;;5114820;28;20447;-71
2022/10/21 10:23:45;;;;;;;58.77;3.80;;;;;;;;;;5113874;28;20464;-69
2022/10/21 10:26:17;;;;;;;58.73;4.07;;;;;;;;;;5114675;28;20838;-70
2022/10/21 10:28:50;;;;;;;60.23;3.93;;;;;;;;;;5114402;28;20446;-70
2022/10/21 10:31:23;;;;;;;59.60;3.83;;;;;;;;;;5114461;28;20441;-72
2022/10/21 10:33:54;;;;;;;61.17;4.77;;;;;;;;;;5114314;28;20472;-70
2022/10/21 10:36:25;;;;;;;64.27;4.03;;;;;;;;;;5114662;28;20476;-71
2022/10/21 10:38:54;;;;;;;59.37;3.10;;;;;;;;;;5114424;27;20445;-70
2022/10/21 10:41:21;;;;;;;60.60;4.27;;;;;;;;;;5114546;28;20448;-70
2022/10/21 10:43:51;;;;;;;58.67;4.10;;;;;;;;;;5114335;28;20929;-70
2022/10/21 10:46:24;;;;;;;59.77;4.07;;;;;;;;;;5111918;28;20473;-69
2022/10/21 10:48:52;;;;;;;63.27;4.20;;;;;;;;;;5114287;28;20442;-70
2022/10/21 10:51:27;;;;;;;65.63;3.77;;;;;;;;;;5113919;27;20453;-70
2022/10/21 10:54:01;;;;;;;58.87;3.23;;;;;;;;;;5114080;28;20494;-70
2022/10/21 10:56:29;;;;;;;59.07;3.43;;;;;;;;;;5113967;28;20469;-70
2022/10/21 10:59:06;;;;;;;58.00;2.97;;;;;;;;;;5113698;28;20452;-70
2022/10/21 11:01:38;;;;;;;58.60;3.33;;;;;;;;;;5114977;28;20460;-70
2022/10/21 11:04:10;;;;;;;58.50;2.93;;;;;;;;;;5114263;27;20451;-70
2022/10/21 11:06:42;;;;;;;58.27;2.90;;;;;;;;;;5113938;27;20469;-70
2022/10/21 11:09:09;;;;;;;61.47;3.90;;;;;;;;;;5113340;28;20453;-70
2022/10/21 11:11:37;;;;;;;57.77;2.70;;;;;;;;;;5113930;27;20452;-71
2022/10/21 11:14:08;;;;;;;57.90;2.60;;;;;;;;;;5113808;28;20824;-70
2022/10/21 11:16:41;;;;;;;59.30;3.00;;;;;;;;;;5113817;28;20465;-70
2022/10/21 11:19:12;;;;;;;59.57;2.70;;;;;;;;;;5111316;28;20477;-70
2022/10/21 11:21:43;;;;;;;58.17;2.90;;;;;;;;;;5113525;28;20453;-69
2022/10/21 11:24:34;;;;;;;58.10;2.97;;;;;;;;;;5113707;27;20510;-72
2022/10/21 11:27:04;;;;;;;58.07;2.57;;;;;;;;;;5096943;27;20480;-70
2022/10/21 11:29:43;;;;;;;58.10;2.97;;;;;;;;;;5111967;28;20505;-70
2022/10/21 11:32:16;;;;;;;58.77;3.10;;;;;;;;;;5113069;28;20473;-71
2022/10/21 11:34:50;;;;;;;57.93;2.70;;;;;;;;;;5112860;28;20457;-72
2022/10/21 11:37:22;;;;;;;58.07;2.90;;;;;;;;;;5112197;28;20465;-70
2022/10/21 11:39:53;;;;;;;59.40;3.10;;;;;;;;;;5111984;28;20984;-71
2022/10/21 11:42:24;;;;;;;57.73;2.60;;;;;;;;;;5113591;28;20445;-70
2022/10/21 11:44:56;;;;;;;58.20;3.00;;;;;;;;;;5112756;28;20448;-70
2022/10/21 11:47:27;;;;;;;58.20;2.60;;;;;;;;;;5113136;28;20472;-70
2022/10/21 11:49:58;;;;;;;57.93;3.03;;;;;;;;;;5110634;28;20441;-70
2022/10/21 11:52:30;;;;;;;57.77;2.70;;;;;;;;;;5112814;28;20477;-71
2022/10/21 11:55:05;;;;;;;58.50;2.90;;;;;;;;;;5112773;28;20450;-71
2022/10/21 11:57:36;;;;;;;57.70;2.70;;;;;;;;;;5113089;28;20469;-70
2022/10/21 12:00:11;;;;;;;58.07;3.07;;;;;;;;;;5112619;28;20545;-70
2022/10/21 12:02:42;;;;;;;57.87;2.53;;;;;;;;;;5112820;28;20445;-70
2022/10/21 12:05:15;;;;;;;58.70;3.20;;;;;;;;;;5112833;28;20442;-70
2022/10/21 12:07:59;;;;;;;57.87;2.50;;;;;;;;;;5112829;28;20569;-70
2022/10/21 12:10:30;;;;;;;58.80;2.80;;;;;;;;;;5112609;28;20452;-72
2022/10/21 12:12:59;;;;;;;57.97;2.60;;;;;;;;;;5112749;28;20944;-70
2022/10/21 12:15:31;;;;;;;58.27;2.90;;;;;;;;;;5112807;28;20445;-70
2022/10/21 12:18:00;;;;;;;57.53;2.53;;;;;;;;;;5112352;28;20452;-70
2022/10/21 12:20:28;;;;;;;58.40;2.70;;;;;;;;;;5112181;28;20944;-70
2022/10/21 12:22:59;;;;;;;58.87;2.53;;;;;;;;;;5110352;28;20446;-70
2022/10/21 12:25:31;;;;;;;58.50;3.07;;;;;;;;;;5112669;28;20446;-71
2022/10/21 12:28:03;;;;;;;57.97;2.70;;;;;;;;;;5112427;28;20472;-70
2022/10/21 12:30:33;;;;;;;58.90;3.00;;;;;;;;;;5111946;28;20483;-70
2022/10/21 12:33:08;;;;;;;58.10;2.70;;;;;;;;;;5112330;28;20488;-72
2022/10/21 12:35:42;;;;;;;58.00;3.00;;;;;;;;;;5112270;28;20461;-70
2022/10/21 12:38:26;;;;;;;59.07;2.70;;;;;;;;;;5112210;28;20449;-70
2022/10/21 12:41:08;;;;;;;58.00;2.70;;;;;;;;;;5111958;28;20448;-70
2022/10/21 12:43:35;;;;;;;58.90;2.77;;;;;;;;;;5111969;28;20441;-70
2022/10/21 12:46:06;;;;;;;57.87;2.57;;;;;;;;;;5111573;28;20845;-70
2022/10/21 12:48:35;;;;;;;57.57;2.50;;;;;;;;;;5111941;28;20456;-70
2022/10/21 12:51:04;;;;;;;57.27;2.20;;;;;;;;;;5112668;28;20441;-69
2022/10/21 12:53:38;;;;;;;58.20;2.60;;;;;;;;;;5111686;28;20485;-69
2022/10/21 12:56:07;;;;;;;57.83;2.70;;;;;;;;;;5110896;28;20472;-70
2022/10/21 12:58:36;;;;;;;58.03;2.97;;;;;;;;;;5112191;28;20441;-72
2022/10/21 13:01:05;;;;;;;59.57;2.40;;;;;;;;;;5112007;28;20453;-71
2022/10/21 13:03:53;;;;;;;58.77;2.67;;;;;;;;;;5111866;28;20437;-70
2022/10/21 13:06:35;;;;;;;57.57;2.30;;;;;;;;;;5111806;28;20552;-70
2022/10/21 13:09:02;;;;;;;57.60;2.40;;;;;;;;;;5111444;28;20456;-70
2022/10/21 13:11:40;;;;;;;58.00;2.57;;;;;;;;;;5111992;28;20456;-71
2022/10/21 13:14:29;;;;;;;57.80;2.40;;;;;;;;;;5111857;28;20480;-69
2022/10/21 13:17:11;;;;;;;58.00;2.57;;;;;;;;;;5112178;28;20839;-71
2022/10/21 13:19:39;;;;;;;57.67;2.57;;;;;;;;;;5111282;27;20829;-71
2022/10/21 13:22:11;;;;;;;58.10;2.50;;;;;;;;;;5111864;28;20449;-70
2022/10/21 13:24:38;;;;;;;57.87;2.60;;;;;;;;;;5111517;28;20444;-71
2022/10/21 13:27:24;;;;;;;58.40;2.90;;;;;;;;;;5110195;28;20469;-70
2022/10/21 13:29:52;;;;;;;58.87;2.70;;;;;;;;;;5111568;28;20447;-70
2022/10/21 13:32:29;;;;;;;58.13;3.53;;;;;;;;;;5111607;28;20536;-70
2022/10/21 13:34:59;;;;;;;57.90;2.60;;;;;;;;;;5111395;28;20453;-71
2022/10/21 13:37:28;;;;;;;58.20;2.90;;;;;;;;;;5111431;28;20556;-71
2022/10/21 13:39:56;;;;;;;61.33;3.50;;;;;;;;;;5111579;28;20863;-70
2022/10/21 13:42:24;;;;;;;59.00;3.00;;;;;;;;;;5111715;28;20817;-70
2022/10/21 13:44:53;;;;;;;58.30;3.00;;;;;;;;;;5111673;28;20449;-70
2022/10/21 13:47:21;;;;;;;59.13;3.53;;;;;;;;;;5111599;28;20469;-70
2022/10/21 13:49:51;;;;;;;58.80;3.13;;;;;;;;;;5110992;28;20442;-70
2022/10/21 13:52:20;;;;;;;58.40;2.90;;;;;;;;;;5111722;28;21081;-70
2022/10/21 13:54:47;;;;;;;58.10;2.63;;;;;;;;;;5111563;28;20881;-71
2022/10/21 13:57:16;;;;;;;58.57;3.30;;;;;;;;;;5109902;28;20539;-70
2022/10/21 13:59:44;;;;;;;58.07;3.27;;;;;;;;;;5114804;28;20522;-70
2022/10/21 14:02:23;;;;;;;58.50;3.60;;;;;;;;;;5114918;28;20457;-71
2022/10/21 14:04:50;;;;;;;58.30;2.70;;;;;;;;;;5115223;28;20444;-71
2022/10/21 14:07:19;;;;;;;57.67;2.50;;;;;;;;;;5115096;28;20482;-71
2022/10/21 14:09:48;;;;;;;57.90;2.80;;;;;;;;;;5114754;28;20448;-71
2022/10/21 14:12:20;;;;;;;57.80;2.53;;;;;;;;;;5114891;28;20442;-71
2022/10/21 14:14:47;;;;;;;57.97;2.80;;;;;;;;;;5114871;28;20441;-70
2022/10/21 14:17:16;;;;;;;57.73;2.40;;;;;;;;;;5114780;28;20472;-71
2022/10/21 14:19:47;;;;;;;60.10;3.00;;;;;;;;;;5114597;28;20442;-71
2022/10/21 14:22:18;;;;;;;58.07;2.80;;;;;;;;;;5114886;28;20445;-70
2022/10/21 14:24:46;;;;;;;57.97;2.60;;;;;;;;;;5114753;28;20787;-70
2022/10/21 14:27:16;;;;;;;58.30;2.90;;;;;;;;;;5114241;28;20468;-70
2022/10/21 14:29:43;;;;;;;57.93;2.90;;;;;;;;;;5112452;28;20447;-70
2022/10/21 14:32:13;;;;;;;58.27;2.70;;;;;;;;;;5114626;28;20537;-70
2022/10/21 14:34:55;;;;;;;57.97;3.10;;;;;;;;;;5114291;28;20491;-70
2022/10/21 14:37:22;;;;;;;58.47;3.90;;;;;;;;;;5114479;28;20472;-70
2022/10/21 14:39:49;;;;;;;57.47;2.50;;;;;;;;;;5113874;28;20548;-70
2022/10/21 14:42:18;;;;;;;57.70;2.50;;;;;;;;;;5114616;28;20446;-70
2022/10/21 14:44:46;;;;;;;57.27;2.53;;;;;;;;;;5114451;28;20444;-70